Time;durP1;ratioP1;P1;durP2;ratioP2;P2;SDS_P1;SDS_P2;PMS_P1;PMS_P2;Temp;Humidity;BMP_temperature;BMP_pressure;BME280_temperature;BME280_humidity;BME280_pressure;Samples;Min_cycle;Max_cycle;Signal;HPM_P1;HPM_P2
2024/01/30 00:00:19;;;;;;;16.80;9.73;;;;;;;;;;5088939;28;20210;-64
2024/01/30 00:02:46;;;;;;;16.83;9.27;;;;;;;;;;5087817;28;20206;-65
2024/01/30 00:05:14;;;;;;;14.17;8.40;;;;;;;;;;5087048;28;20292;-64
2024/01/30 00:07:41;;;;;;;12.67;8.97;;;;;;;;;;5076896;28;20609;-64
2024/01/30 00:10:09;;;;;;;14.43;9.00;;;;;;;;;;5098198;28;20290;-64
2024/01/30 00:12:36;;;;;;;13.87;9.07;;;;;;;;;;5089874;28;20206;-64
2024/01/30 00:15:04;;;;;;;13.00;8.73;;;;;;;;;;5086604;28;20217;-64
2024/01/30 00:17:31;;;;;;;12.53;8.87;;;;;;;;;;5085767;28;20767;-64
2024/01/30 00:19:58;;;;;;;13.33;8.10;;;;;;;;;;5088807;28;20214;-65
2024/01/30 00:22:26;;;;;;;13.73;8.50;;;;;;;;;;5087473;28;20209;-64
2024/01/30 00:24:53;;;;;;;12.37;8.37;;;;;;;;;;5087620;28;20329;-64
2024/01/30 00:27:20;;;;;;;14.07;7.57;;;;;;;;;;5087817;28;20210;-65
2024/01/30 00:29:47;;;;;;;12.80;8.47;;;;;;;;;;5094339;28;20205;-65
2024/01/30 00:32:14;;;;;;;19.37;8.57;;;;;;;;;;5088463;28;20213;-64
2024/01/30 00:34:42;;;;;;;11.67;8.87;;;;;;;;;;5086940;28;20830;-65
2024/01/30 00:37:10;;;;;;;12.07;7.80;;;;;;;;;;5084028;28;20213;-65
2024/01/30 00:39:38;;;;;;;12.83;8.40;;;;;;;;;;5087181;28;20252;-66
2024/01/30 00:42:05;;;;;;;12.27;8.17;;;;;;;;;;5088054;28;20214;-64
2024/01/30 00:44:33;;;;;;;15.27;8.60;;;;;;;;;;5087037;28;20672;-64
2024/01/30 00:47:00;;;;;;;13.00;7.83;;;;;;;;;;5090614;28;20201;-65
2024/01/30 00:49:27;;;;;;;12.07;7.43;;;;;;;;;;5086535;28;20205;-64
2024/01/30 00:51:54;;;;;;;12.63;8.07;;;;;;;;;;5094779;28;20692;-64
2024/01/30 00:54:21;;;;;;;14.63;8.87;;;;;;;;;;5082164;28;20206;-64
2024/01/30 00:56:49;;;;;;;13.47;7.83;;;;;;;;;;5086738;28;20224;-64
2024/01/30 00:59:16;;;;;;;13.37;8.77;;;;;;;;;;5086310;28;20233;-64
2024/01/30 01:01:43;;;;;;;12.27;8.50;;;;;;;;;;5087426;28;20215;-65
2024/01/30 01:04:10;;;;;;;13.17;8.80;;;;;;;;;;5086171;28;20202;-64
2024/01/30 01:06:37;;;;;;;17.00;8.80;;;;;;;;;;5068698;28;20689;-64
2024/01/30 01:09:04;;;;;;;14.87;9.33;;;;;;;;;;5085931;28;20205;-64
2024/01/30 01:11:31;;;;;;;14.53;9.00;;;;;;;;;;5088075;28;20260;-64
2024/01/30 01:13:59;;;;;;;14.80;8.80;;;;;;;;;;5086770;28;20213;-64
2024/01/30 01:16:26;;;;;;;14.57;8.63;;;;;;;;;;5082601;28;20209;-65
2024/01/30 01:18:53;;;;;;;12.27;7.43;;;;;;;;;;5087032;28;20241;-64
2024/01/30 01:21:20;;;;;;;10.87;7.77;;;;;;;;;;5086555;28;20205;-65
2024/01/30 01:23:48;;;;;;;13.17;8.33;;;;;;;;;;5105766;28;20228;-64
2024/01/30 01:26:15;;;;;;;12.27;7.40;;;;;;;;;;5097575;28;20296;-64
2024/01/30 01:28:42;;;;;;;13.17;7.37;;;;;;;;;;5087472;28;20283;-65
2024/01/30 01:31:10;;;;;;;13.63;7.87;;;;;;;;;;5104224;28;20213;-64
2024/01/30 01:33:37;;;;;;;9.10;6.93;;;;;;;;;;5109133;28;20212;-65
2024/01/30 01:36:06;;;;;;;12.30;7.63;;;;;;;;;;5086668;28;20220;-65
2024/01/30 01:38:33;;;;;;;9.67;6.87;;;;;;;;;;5093988;28;20240;-64
2024/01/30 01:41:00;;;;;;;15.87;7.80;;;;;;;;;;5089063;28;20205;-64
2024/01/30 01:43:27;;;;;;;11.37;7.53;;;;;;;;;;5089825;28;20580;-64
2024/01/30 01:45:54;;;;;;;13.40;7.10;;;;;;;;;;5089421;28;20904;-64
2024/01/30 01:48:22;;;;;;;13.37;7.53;;;;;;;;;;5089126;28;20212;-65
2024/01/30 01:50:50;;;;;;;11.03;7.47;;;;;;;;;;5089310;28;20217;-64
2024/01/30 01:53:17;;;;;;;11.83;7.70;;;;;;;;;;5089451;28;20223;-64
2024/01/30 01:55:44;;;;;;;14.60;7.33;;;;;;;;;;5089701;28;20209;-64
2024/01/30 01:58:12;;;;;;;14.60;7.73;;;;;;;;;;5089479;28;20233;-65
2024/01/30 02:00:41;;;;;;;10.97;7.83;;;;;;;;;;5089370;28;20713;-65
2024/01/30 02:03:09;;;;;;;15.30;9.17;;;;;;;;;;5088878;28;20209;-62
2024/01/30 02:05:38;;;;;;;16.17;8.30;;;;;;;;;;5090752;28;20865;-64
2024/01/30 02:08:06;;;;;;;12.50;8.20;;;;;;;;;;5089280;28;20224;-65
2024/01/30 02:10:33;;;;;;;14.67;8.37;;;;;;;;;;5089032;28;20232;-64
2024/01/30 02:13:00;;;;;;;14.37;8.43;;;;;;;;;;5089166;28;20239;-64
2024/01/30 02:15:27;;;;;;;13.87;8.93;;;;;;;;;;5089663;28;20267;-64
2024/01/30 02:17:54;;;;;;;12.07;8.77;;;;;;;;;;5090317;28;20301;-64
2024/01/30 02:20:21;;;;;;;13.37;8.17;;;;;;;;;;5089073;28;20234;-64
2024/01/30 02:22:49;;;;;;;14.17;7.87;;;;;;;;;;5089559;28;20216;-64
2024/01/30 02:25:17;;;;;;;11.67;7.43;;;;;;;;;;5091610;28;20275;-64
2024/01/30 02:27:44;;;;;;;9.90;7.20;;;;;;;;;;5083194;28;20570;-64
2024/01/30 02:30:11;;;;;;;12.37;7.70;;;;;;;;;;5089226;28;20208;-64
2024/01/30 02:32:38;;;;;;;12.67;7.53;;;;;;;;;;5089271;28;20880;-64
2024/01/30 02:35:05;;;;;;;9.67;7.23;;;;;;;;;;5087926;28;20218;-64
2024/01/30 02:37:32;;;;;;;9.47;6.90;;;;;;;;;;5089301;28;20203;-65
2024/01/30 02:40:01;;;;;;;10.17;6.43;;;;;;;;;;5088400;28;20229;-64
2024/01/30 02:45:31;;;;;;;9.57;6.47;;;;;;;;;;5083163;28;20242;-64
2024/01/30 02:47:58;;;;;;;12.53;6.83;;;;;;;;;;5087457;28;20205;-64
2024/01/30 02:50:25;;;;;;;9.80;7.00;;;;;;;;;;5088936;28;20663;-64
2024/01/30 02:52:52;;;;;;;12.83;7.57;;;;;;;;;;5088603;28;20204;-64
2024/01/30 02:55:21;;;;;;;10.30;7.27;;;;;;;;;;5088877;28;20216;-65
2024/01/30 02:57:48;;;;;;;10.77;7.10;;;;;;;;;;5086559;28;20354;-65
2024/01/30 03:00:15;;;;;;;12.20;6.77;;;;;;;;;;5088573;28;20231;-64
2024/01/30 03:02:42;;;;;;;10.67;7.20;;;;;;;;;;5088901;28;20254;-65
2024/01/30 03:05:09;;;;;;;10.03;7.03;;;;;;;;;;5088523;28;20608;-65
2024/01/30 03:07:36;;;;;;;10.37;6.73;;;;;;;;;;5088229;28;20207;-64
2024/01/30 03:10:04;;;;;;;9.40;6.80;;;;;;;;;;5090898;28;20230;-64
2024/01/30 03:12:32;;;;;;;12.10;7.07;;;;;;;;;;5087847;28;20362;-64
2024/01/30 03:14:59;;;;;;;10.43;7.20;;;;;;;;;;5088429;28;20246;-64
2024/01/30 03:17:26;;;;;;;8.03;6.63;;;;;;;;;;5088478;28;20582;-64
2024/01/30 03:19:53;;;;;;;10.77;7.10;;;;;;;;;;5088991;28;20226;-64
2024/01/30 03:22:20;;;;;;;10.97;6.47;;;;;;;;;;5083211;28;20296;-64
2024/01/30 03:24:47;;;;;;;10.70;6.63;;;;;;;;;;5088247;28;20207;-64
2024/01/30 03:27:14;;;;;;;9.90;6.73;;;;;;;;;;5088108;28;20212;-65
2024/01/30 03:29:42;;;;;;;11.60;6.23;;;;;;;;;;5088005;28;20766;-64
2024/01/30 03:32:09;;;;;;;9.57;6.57;;;;;;;;;;5087486;28;20206;-65
2024/01/30 03:34:36;;;;;;;11.33;6.80;;;;;;;;;;5087330;28;20206;-65
2024/01/30 03:37:04;;;;;;;9.73;6.80;;;;;;;;;;5087316;28;20200;-64
2024/01/30 03:39:32;;;;;;;7.20;5.53;;;;;;;;;;5087706;28;20260;-64
2024/01/30 03:41:59;;;;;;;7.83;6.00;;;;;;;;;;5087599;28;20209;-64
2024/01/30 03:44:26;;;;;;;7.43;5.23;;;;;;;;;;5081370;28;20596;-65
2024/01/30 03:46:54;;;;;;;8.20;6.10;;;;;;;;;;5086165;28;20250;-65
2024/01/30 03:49:21;;;;;;;10.50;6.30;;;;;;;;;;5087915;28;20200;-64
2024/01/30 03:51:48;;;;;;;14.57;6.27;;;;;;;;;;5086503;28;20231;-64
2024/01/30 03:54:15;;;;;;;7.40;5.90;;;;;;;;;;5087420;28;20202;-65
2024/01/30 03:56:42;;;;;;;10.47;6.73;;;;;;;;;;5087703;28;20216;-64
2024/01/30 03:59:09;;;;;;;7.00;5.53;;;;;;;;;;5080990;28;20814;-65
2024/01/30 04:01:36;;;;;;;10.53;6.27;;;;;;;;;;5095399;28;20209;-65
2024/01/30 04:04:04;;;;;;;9.33;6.00;;;;;;;;;;5089234;28;20312;-65
2024/01/30 04:06:32;;;;;;;10.73;6.73;;;;;;;;;;5087010;28;20206;-65
2024/01/30 04:08:58;;;;;;;9.80;6.23;;;;;;;;;;5087730;28;20205;-65
2024/01/30 04:11:26;;;;;;;10.23;6.37;;;;;;;;;;5102336;28;20224;-65
2024/01/30 04:13:53;;;;;;;9.53;6.97;;;;;;;;;;5087453;28;20290;-65
2024/01/30 04:16:23;;;;;;;9.70;6.83;;;;;;;;;;5086689;28;20230;-65
2024/01/30 04:18:50;;;;;;;10.10;6.37;;;;;;;;;;5087132;28;20210;-65
2024/01/30 04:21:18;;;;;;;10.60;6.60;;;;;;;;;;5088797;28;20227;-64
2024/01/30 04:23:45;;;;;;;9.20;6.13;;;;;;;;;;5087379;28;20213;-65
2024/01/30 04:26:12;;;;;;;12.50;6.90;;;;;;;;;;5086486;28;20207;-64
2024/01/30 04:28:39;;;;;;;8.10;6.30;;;;;;;;;;5087309;28;20208;-68
2024/01/30 04:31:06;;;;;;;8.43;6.00;;;;;;;;;;5087191;28;20670;-64
2024/01/30 04:33:33;;;;;;;9.20;6.60;;;;;;;;;;5087235;28;20205;-64
2024/01/30 04:36:01;;;;;;;8.70;5.90;;;;;;;;;;5087027;28;20200;-64
2024/01/30 04:38:29;;;;;;;8.50;5.63;;;;;;;;;;5086866;28;20202;-64
2024/01/30 04:40:56;;;;;;;8.57;6.10;;;;;;;;;;5088085;28;20639;-64
2024/01/30 04:43:23;;;;;;;7.03;5.37;;;;;;;;;;5087243;28;20216;-64
2024/01/30 04:45:51;;;;;;;12.73;7.03;;;;;;;;;;5087104;28;20735;-65
2024/01/30 04:48:18;;;;;;;8.50;5.83;;;;;;;;;;5086242;28;20265;-65
2024/01/30 04:50:45;;;;;;;11.03;6.50;;;;;;;;;;5084852;28;20219;-64
2024/01/30 04:53:12;;;;;;;7.90;6.33;;;;;;;;;;5092309;28;20697;-65
2024/01/30 04:55:40;;;;;;;12.50;6.00;;;;;;;;;;5081528;28;20203;-65
2024/01/30 04:58:07;;;;;;;8.70;6.03;;;;;;;;;;5086091;28;20227;-65
2024/01/30 05:00:35;;;;;;;10.67;6.63;;;;;;;;;;5097472;28;20224;-65
2024/01/30 05:03:02;;;;;;;12.10;6.77;;;;;;;;;;5087289;28;20332;-65
2024/01/30 05:05:29;;;;;;;11.07;7.07;;;;;;;;;;5090033;28;20202;-65
2024/01/30 05:07:56;;;;;;;10.27;7.00;;;;;;;;;;5090700;28;20245;-65
2024/01/30 05:10:23;;;;;;;10.70;7.30;;;;;;;;;;5090762;28;20241;-62
2024/01/30 05:12:51;;;;;;;9.67;6.57;;;;;;;;;;5091812;28;20237;-62
2024/01/30 05:15:18;;;;;;;11.03;6.30;;;;;;;;;;5089931;28;20204;-65
2024/01/30 05:17:45;;;;;;;9.70;6.20;;;;;;;;;;5090541;28;20215;-65
2024/01/30 05:20:13;;;;;;;10.67;7.03;;;;;;;;;;5090636;28;20233;-65
2024/01/30 05:22:44;;;;;;;8.33;7.00;;;;;;;;;;5089657;28;20589;-65
2024/01/30 05:25:11;;;;;;;9.40;6.33;;;;;;;;;;5109323;28;20408;-65
2024/01/30 05:27:39;;;;;;;12.73;7.13;;;;;;;;;;5090425;28;20303;-65
2024/01/30 05:30:08;;;;;;;8.47;6.80;;;;;;;;;;5089362;28;20202;-65
2024/01/30 05:32:35;;;;;;;8.90;6.93;;;;;;;;;;5090446;28;20203;-65
2024/01/30 05:35:02;;;;;;;12.90;6.40;;;;;;;;;;5085854;28;20211;-65
2024/01/30 05:37:29;;;;;;;14.43;7.43;;;;;;;;;;5089729;28;20634;-65
2024/01/30 05:39:57;;;;;;;10.37;7.33;;;;;;;;;;5088442;28;20229;-65
2024/01/30 05:42:24;;;;;;;11.57;6.80;;;;;;;;;;5089544;28;20298;-64
2024/01/30 05:44:51;;;;;;;10.53;6.43;;;;;;;;;;5091881;28;20206;-65
2024/01/30 05:47:19;;;;;;;11.53;6.37;;;;;;;;;;5089705;28;20202;-64
2024/01/30 05:49:46;;;;;;;9.43;6.23;;;;;;;;;;5086939;28;20219;-65
2024/01/30 05:52:15;;;;;;;10.07;7.13;;;;;;;;;;5090153;28;20215;-62
2024/01/30 05:54:42;;;;;;;15.23;7.43;;;;;;;;;;5078710;28;20578;-65
2024/01/30 05:57:09;;;;;;;15.93;7.53;;;;;;;;;;5091464;28;20254;-63
2024/01/30 05:59:37;;;;;;;16.73;8.60;;;;;;;;;;5090284;28;20234;-63
2024/01/30 06:02:04;;;;;;;22.50;9.27;;;;;;;;;;5088667;28;20293;-63
2024/01/30 06:04:32;;;;;;;17.47;8.23;;;;;;;;;;5080123;28;20250;-63
2024/01/30 06:07:01;;;;;;;17.87;8.70;;;;;;;;;;5089881;28;20206;-63
2024/01/30 06:09:28;;;;;;;16.23;8.53;;;;;;;;;;5078755;28;20206;-63
2024/01/30 06:11:55;;;;;;;18.50;9.20;;;;;;;;;;5090067;28;20230;-63
2024/01/30 06:14:22;;;;;;;19.97;9.90;;;;;;;;;;5088633;28;20218;-63
2024/01/30 06:16:50;;;;;;;20.13;9.17;;;;;;;;;;5089380;28;20213;-63
2024/01/30 06:19:17;;;;;;;19.67;9.20;;;;;;;;;;5089139;28;20207;-63
2024/01/30 06:21:45;;;;;;;17.50;8.40;;;;;;;;;;5089544;28;20229;-63
2024/01/30 06:24:12;;;;;;;17.97;8.77;;;;;;;;;;5076614;28;20829;-63
2024/01/30 06:26:39;;;;;;;18.73;9.83;;;;;;;;;;5085135;28;20198;-63
2024/01/30 06:29:07;;;;;;;16.40;8.73;;;;;;;;;;5094411;28;20207;-63
2024/01/30 06:31:34;;;;;;;17.30;9.40;;;;;;;;;;5088276;28;20742;-63
2024/01/30 06:34:01;;;;;;;26.13;10.80;;;;;;;;;;5097629;28;20206;-63
2024/01/30 06:36:28;;;;;;;19.83;9.93;;;;;;;;;;5090356;28;20199;-64
2024/01/30 06:38:57;;;;;;;20.03;9.90;;;;;;;;;;5101589;28;20308;-63
2024/01/30 06:41:24;;;;;;;20.00;10.03;;;;;;;;;;5100468;28;20232;-63
2024/01/30 06:43:51;;;;;;;20.20;10.13;;;;;;;;;;5084351;28;20630;-63
2024/01/30 06:46:18;;;;;;;22.57;10.10;;;;;;;;;;5080769;28;20207;-63
2024/01/30 06:48:45;;;;;;;20.43;9.20;;;;;;;;;;5092980;28;20235;-63
2024/01/30 06:51:12;;;;;;;23.80;9.80;;;;;;;;;;5107616;28;20201;-65
2024/01/30 06:53:39;;;;;;;21.33;10.57;;;;;;;;;;5104253;28;20211;-63
2024/01/30 06:56:08;;;;;;;19.77;9.97;;;;;;;;;;5084092;28;20206;-64
2024/01/30 06:58:35;;;;;;;23.60;11.20;;;;;;;;;;5089146;28;20859;-64
2024/01/30 07:01:02;;;;;;;19.27;9.83;;;;;;;;;;5087321;28;20226;-64
2024/01/30 07:03:29;;;;;;;24.00;11.07;;;;;;;;;;5088055;28;20209;-64
2024/01/30 07:05:56;;;;;;;19.97;10.30;;;;;;;;;;5080375;28;20216;-64
2024/01/30 07:08:23;;;;;;;24.57;11.43;;;;;;;;;;5075877;28;20199;-64
2024/01/30 07:10:50;;;;;;;22.73;10.67;;;;;;;;;;5088181;28;20249;-63
2024/01/30 07:13:19;;;;;;;19.87;10.67;;;;;;;;;;5098155;28;20207;-64
2024/01/30 07:15:46;;;;;;;22.63;10.00;;;;;;;;;;5073668;28;20218;-63
2024/01/30 07:18:13;;;;;;;22.43;11.33;;;;;;;;;;5084467;28;20389;-64
2024/01/30 07:20:45;;;;;;;17.33;9.67;;;;;;;;;;5087609;28;20234;-64
2024/01/30 07:23:13;;;;;;;20.57;10.33;;;;;;;;;;5087801;28;20675;-64
2024/01/30 07:25:41;;;;;;;20.70;10.90;;;;;;;;;;5087719;28;20272;-65
2024/01/30 07:28:09;;;;;;;20.23;10.90;;;;;;;;;;5087293;28;20290;-64
2024/01/30 07:30:37;;;;;;;20.83;10.23;;;;;;;;;;5087469;28;20286;-65
2024/01/30 07:33:05;;;;;;;21.93;10.93;;;;;;;;;;5068916;28;20211;-64
2024/01/30 07:35:32;;;;;;;19.47;11.10;;;;;;;;;;5083322;28;20668;-64
2024/01/30 07:37:59;;;;;;;19.27;10.27;;;;;;;;;;5087473;28;20219;-64
2024/01/30 07:40:26;;;;;;;23.50;11.23;;;;;;;;;;5079554;28;20209;-65
2024/01/30 07:42:54;;;;;;;22.23;12.07;;;;;;;;;;5068338;28;20211;-65
2024/01/30 07:45:24;;;;;;;21.03;11.30;;;;;;;;;;5084561;28;20206;-63
2024/01/30 07:47:52;;;;;;;23.67;11.53;;;;;;;;;;5086993;28;20205;-63
2024/01/30 07:50:19;;;;;;;23.97;11.57;;;;;;;;;;5082942;28;20214;-65
2024/01/30 07:52:51;;;;;;;22.30;11.77;;;;;;;;;;5066610;28;20730;-64
2024/01/30 07:55:19;;;;;;;25.90;12.73;;;;;;;;;;5066845;28;20257;-63
2024/01/30 07:57:47;;;;;;;23.87;11.57;;;;;;;;;;5065018;28;20227;-65
2024/01/30 08:00:15;;;;;;;21.63;11.20;;;;;;;;;;5080195;28;20204;-65
2024/01/30 08:02:42;;;;;;;20.50;11.03;;;;;;;;;;5076007;28;20207;-65
2024/01/30 08:05:11;;;;;;;26.90;11.20;;;;;;;;;;5069335;28;20215;-64
2024/01/30 08:07:38;;;;;;;20.70;11.23;;;;;;;;;;5083731;28;20367;-65
2024/01/30 08:10:05;;;;;;;25.80;12.53;;;;;;;;;;5085835;28;20255;-65
2024/01/30 08:12:32;;;;;;;24.33;12.37;;;;;;;;;;5086650;28;20209;-65
2024/01/30 08:14:59;;;;;;;26.17;13.03;;;;;;;;;;5079414;28;20222;-64
2024/01/30 08:17:26;;;;;;;22.90;11.33;;;;;;;;;;5066572;28;20221;-64
2024/01/30 08:19:53;;;;;;;22.97;11.30;;;;;;;;;;5085954;28;20217;-65
2024/01/30 08:22:21;;;;;;;22.10;12.17;;;;;;;;;;5082073;28;20225;-64
2024/01/30 08:24:48;;;;;;;21.77;12.13;;;;;;;;;;5085879;28;20224;-65
2024/01/30 08:27:15;;;;;;;23.53;13.03;;;;;;;;;;5098062;28;20211;-64
2024/01/30 08:29:43;;;;;;;25.67;13.63;;;;;;;;;;5095380;28;20271;-65
2024/01/30 08:32:10;;;;;;;24.43;13.17;;;;;;;;;;5066475;28;20300;-64
2024/01/30 08:34:37;;;;;;;26.53;12.43;;;;;;;;;;5069645;28;20577;-64
2024/01/30 08:37:04;;;;;;;29.60;13.03;;;;;;;;;;5078898;28;20217;-64
2024/01/30 08:39:32;;;;;;;28.20;13.47;;;;;;;;;;5082521;28;20601;-65
2024/01/30 08:41:59;;;;;;;25.10;13.97;;;;;;;;;;5086481;28;20237;-65
2024/01/30 08:44:27;;;;;;;29.10;13.90;;;;;;;;;;5086703;28;20212;-65
2024/01/30 08:46:54;;;;;;;24.57;13.53;;;;;;;;;;5086706;28;20214;-65
2024/01/30 08:49:21;;;;;;;31.60;16.13;;;;;;;;;;5086760;28;20217;-65
2024/01/30 08:51:48;;;;;;;34.50;16.93;;;;;;;;;;5088924;28;20464;-65
2024/01/30 08:54:15;;;;;;;29.70;16.47;;;;;;;;;;5092709;28;20287;-65
2024/01/30 08:56:44;;;;;;;31.23;15.47;;;;;;;;;;5096764;28;20667;-65
2024/01/30 08:59:11;;;;;;;24.07;12.97;;;;;;;;;;5086312;28;20232;-65
2024/01/30 09:01:38;;;;;;;25.90;15.13;;;;;;;;;;5087331;28;20221;-71
2024/01/30 09:04:05;;;;;;;24.87;14.13;;;;;;;;;;5065972;28;20217;-66
2024/01/30 09:06:32;;;;;;;29.80;14.43;;;;;;;;;;5068557;28;20218;-62
2024/01/30 09:08:59;;;;;;;25.87;13.13;;;;;;;;;;5085870;28;20213;-62
2024/01/30 09:11:26;;;;;;;25.07;12.83;;;;;;;;;;5066141;28;20743;-64
2024/01/30 09:13:55;;;;;;;24.87;13.37;;;;;;;;;;5069917;28;20209;-61
2024/01/30 09:16:22;;;;;;;27.77;13.57;;;;;;;;;;5102688;28;20209;-63
2024/01/30 09:18:49;;;;;;;24.17;13.80;;;;;;;;;;5103234;28;20209;-64
2024/01/30 09:21:16;;;;;;;28.77;15.00;;;;;;;;;;5098019;28;20221;-64
2024/01/30 09:23:43;;;;;;;28.63;15.90;;;;;;;;;;5086929;28;20263;-62
2024/01/30 09:26:10;;;;;;;26.67;14.97;;;;;;;;;;5085672;28;20210;-62
2024/01/30 09:28:37;;;;;;;30.63;15.70;;;;;;;;;;5086227;28;20218;-62
2024/01/30 09:31:05;;;;;;;32.23;15.13;;;;;;;;;;5099560;28;20201;-63
2024/01/30 09:33:32;;;;;;;24.77;14.17;;;;;;;;;;5094637;28;20672;-63
2024/01/30 09:35:59;;;;;;;31.70;15.30;;;;;;;;;;5086108;28;20222;-66
2024/01/30 09:38:26;;;;;;;32.53;15.07;;;;;;;;;;5095778;28;20211;-63
2024/01/30 09:40:56;;;;;;;26.00;14.77;;;;;;;;;;5106117;28;20198;-63
2024/01/30 09:43:24;;;;;;;30.53;15.37;;;;;;;;;;5074645;28;20290;-62
2024/01/30 09:45:52;;;;;;;25.93;16.13;;;;;;;;;;5094646;28;20322;-64
2024/01/30 09:48:20;;;;;;;26.13;14.37;;;;;;;;;;5103975;28;20238;-64
2024/01/30 09:50:48;;;;;;;32.13;16.33;;;;;;;;;;5107268;28;20213;-65
2024/01/30 09:53:15;;;;;;;27.90;16.67;;;;;;;;;;5109267;28;20293;-65
2024/01/30 09:55:45;;;;;;;31.50;16.67;;;;;;;;;;5098260;28;20212;-64
2024/01/30 09:58:13;;;;;;;28.00;16.20;;;;;;;;;;5093973;28;20322;-64
2024/01/30 10:00:40;;;;;;;33.63;18.07;;;;;;;;;;5086944;28;20218;-64
2024/01/30 10:03:08;;;;;;;37.00;19.10;;;;;;;;;;5087233;28;20215;-64
2024/01/30 10:05:37;;;;;;;27.47;17.13;;;;;;;;;;5089060;28;20297;-64
2024/01/30 10:08:08;;;;;;;32.53;16.43;;;;;;;;;;5104404;28;20303;-64
2024/01/30 10:10:35;;;;;;;29.70;15.43;;;;;;;;;;5109157;28;20244;-64
2024/01/30 10:13:02;;;;;;;26.43;15.00;;;;;;;;;;5109521;27;20231;-64
2024/01/30 10:15:29;;;;;;;24.67;15.10;;;;;;;;;;5090809;28;20586;-64
2024/01/30 10:17:57;;;;;;;22.50;14.40;;;;;;;;;;5088535;28;20346;-64
2024/01/30 10:20:26;;;;;;;24.43;15.73;;;;;;;;;;5093272;28;20212;-64
2024/01/30 10:22:54;;;;;;;26.53;15.43;;;;;;;;;;5107607;28;20722;-63
2024/01/30 10:25:23;;;;;;;25.47;15.40;;;;;;;;;;5102514;28;20210;-64
2024/01/30 10:27:54;;;;;;;19.00;12.73;;;;;;;;;;5095412;28;20212;-66
2024/01/30 10:30:20;;;;;;;25.43;14.83;;;;;;;;;;5109150;28;20232;-64
2024/01/30 10:32:48;;;;;;;22.07;14.67;;;;;;;;;;5097608;28;20202;-64
2024/01/30 10:35:15;;;;;;;21.90;14.77;;;;;;;;;;5095123;28;20198;-64
2024/01/30 10:37:44;;;;;;;22.07;14.80;;;;;;;;;;5109913;28;20217;-64
2024/01/30 10:40:15;;;;;;;20.60;14.13;;;;;;;;;;5098564;28;20584;-64
2024/01/30 10:42:44;;;;;;;20.70;14.07;;;;;;;;;;5088656;28;20596;-64
2024/01/30 10:45:12;;;;;;;20.60;13.83;;;;;;;;;;5097185;28;20421;-65
2024/01/30 10:47:41;;;;;;;19.37;13.30;;;;;;;;;;5101122;28;20208;-66
2024/01/30 10:50:10;;;;;;;22.47;14.60;;;;;;;;;;5088554;28;20209;-64
2024/01/30 10:52:37;;;;;;;19.17;13.47;;;;;;;;;;5098980;28;20202;-64
2024/01/30 10:55:05;;;;;;;19.10;13.17;;;;;;;;;;5083186;28;20213;-64
2024/01/30 10:57:35;;;;;;;17.23;12.47;;;;;;;;;;5078507;28;20676;-65
2024/01/30 11:00:05;;;;;;;20.43;13.33;;;;;;;;;;5067811;28;20215;-65
2024/01/30 11:02:32;;;;;;;18.77;13.77;;;;;;;;;;5081717;28;20237;-66
2024/01/30 11:04:59;;;;;;;17.93;12.90;;;;;;;;;;5074567;28;20206;-64
2024/01/30 11:07:27;;;;;;;17.70;11.93;;;;;;;;;;5088004;28;20727;-64
2024/01/30 11:09:55;;;;;;;16.33;11.30;;;;;;;;;;5087298;28;20241;-63
2024/01/30 11:12:25;;;;;;;15.13;11.13;;;;;;;;;;5082137;28;20222;-63
2024/01/30 11:15:05;;;;;;;17.17;11.17;;;;;;;;;;5099154;28;20296;-64
2024/01/30 11:17:41;;;;;;;16.33;11.00;;;;;;;;;;5107834;28;20213;-64
2024/01/30 11:20:11;;;;;;;15.87;11.20;;;;;;;;;;5091231;28;20206;-64
2024/01/30 11:22:38;;;;;;;13.70;11.20;;;;;;;;;;5091256;28;20230;-65
2024/01/30 11:25:06;;;;;;;14.60;10.00;;;;;;;;;;5088295;28;20210;-64
2024/01/30 11:27:34;;;;;;;15.40;11.30;;;;;;;;;;5083848;28;20212;-65
2024/01/30 11:30:04;;;;;;;21.03;12.93;;;;;;;;;;5104983;28;20225;-65
2024/01/30 11:32:32;;;;;;;19.37;12.17;;;;;;;;;;5108801;28;20644;-65
2024/01/30 11:34:59;;;;;;;19.93;12.20;;;;;;;;;;5092447;28;20214;-65
2024/01/30 11:37:27;;;;;;;18.37;11.37;;;;;;;;;;5088286;28;20210;-65
2024/01/30 11:39:55;;;;;;;15.80;11.10;;;;;;;;;;5088311;28;20206;-65
2024/01/30 11:42:24;;;;;;;15.43;11.33;;;;;;;;;;5087996;28;20237;-65
2024/01/30 11:44:51;;;;;;;15.97;11.10;;;;;;;;;;5084944;28;20213;-65
2024/01/30 11:47:20;;;;;;;15.53;11.20;;;;;;;;;;5096053;28;20285;-65
2024/01/30 11:49:47;;;;;;;19.63;11.80;;;;;;;;;;5099482;28;20209;-64
2024/01/30 11:52:14;;;;;;;18.10;11.83;;;;;;;;;;5108249;28;20209;-65
2024/01/30 11:54:42;;;;;;;16.07;10.97;;;;;;;;;;5078934;28;20228;-65
2024/01/30 11:57:09;;;;;;;17.77;11.90;;;;;;;;;;5083143;28;20214;-65
2024/01/30 11:59:39;;;;;;;16.67;11.37;;;;;;;;;;5086774;28;20236;-66
2024/01/30 12:02:06;;;;;;;17.70;12.57;;;;;;;;;;5088828;28;20226;-64
2024/01/30 12:04:34;;;;;;;13.73;11.23;;;;;;;;;;5107988;28;20202;-64
2024/01/30 12:07:01;;;;;;;16.97;11.30;;;;;;;;;;5098050;28;20210;-63
2024/01/30 12:09:28;;;;;;;16.20;12.00;;;;;;;;;;5086244;28;20591;-63
2024/01/30 12:11:56;;;;;;;16.53;11.73;;;;;;;;;;5087495;28;20229;-63
2024/01/30 12:14:25;;;;;;;17.90;11.87;;;;;;;;;;5085499;28;20242;-63
2024/01/30 12:16:52;;;;;;;17.70;12.27;;;;;;;;;;5079818;28;20218;-63
2024/01/30 12:19:25;;;;;;;17.33;11.80;;;;;;;;;;5076049;28;20214;-71
2024/01/30 12:21:58;;;;;;;17.53;11.63;;;;;;;;;;5082101;28;20626;-63
2024/01/30 12:24:26;;;;;;;17.30;11.97;;;;;;;;;;5079094;28;20206;-63
2024/01/30 12:26:53;;;;;;;13.07;10.77;;;;;;;;;;5083002;28;20209;-65
2024/01/30 12:29:22;;;;;;;13.87;10.57;;;;;;;;;;5084001;28;20203;-64
2024/01/30 12:31:49;;;;;;;18.30;11.53;;;;;;;;;;5085387;28;20289;-63
2024/01/30 12:34:17;;;;;;;16.27;10.77;;;;;;;;;;5082349;28;20692;-64
2024/01/30 12:36:44;;;;;;;16.07;10.90;;;;;;;;;;5081577;28;20217;-63
2024/01/30 12:39:14;;;;;;;16.83;11.30;;;;;;;;;;5079639;28;20293;-63
2024/01/30 12:41:41;;;;;;;14.43;10.07;;;;;;;;;;5084114;28;20202;-64
2024/01/30 12:44:08;;;;;;;13.90;10.43;;;;;;;;;;5084374;28;20250;-64
2024/01/30 12:46:35;;;;;;;14.20;10.37;;;;;;;;;;5090486;28;20202;-64
2024/01/30 12:49:02;;;;;;;17.43;11.43;;;;;;;;;;5085475;28;20210;-62
2024/01/30 12:51:29;;;;;;;16.47;11.10;;;;;;;;;;5075701;28;20229;-63
2024/01/30 12:53:56;;;;;;;14.60;11.17;;;;;;;;;;5085787;28;20217;-64
2024/01/30 12:56:25;;;;;;;16.83;11.43;;;;;;;;;;5076023;28;20209;-64
2024/01/30 12:58:52;;;;;;;17.30;11.67;;;;;;;;;;5082218;28;20254;-64
2024/01/30 13:01:35;;;;;;;15.47;10.40;;;;;;;;;;5073533;28;20665;-64
2024/01/30 13:04:03;;;;;;;20.50;10.63;;;;;;;;;;5082161;28;20762;-64
2024/01/30 13:06:30;;;;;;;18.07;11.00;;;;;;;;;;5084436;28;20194;-63
2024/01/30 13:08:57;;;;;;;14.57;10.83;;;;;;;;;;5086432;28;20217;-64
2024/01/30 13:11:25;;;;;;;15.07;10.93;;;;;;;;;;5086084;28;20276;-62
2024/01/30 13:13:52;;;;;;;13.07;10.77;;;;;;;;;;5086395;28;20214;-63
2024/01/30 13:16:19;;;;;;;16.70;11.47;;;;;;;;;;5086410;28;20203;-64
2024/01/30 13:18:46;;;;;;;17.93;11.67;;;;;;;;;;5085578;28;20209;-64
2024/01/30 13:21:13;;;;;;;16.60;12.20;;;;;;;;;;5086002;28;20204;-64
2024/01/30 13:23:41;;;;;;;15.87;10.90;;;;;;;;;;5084264;28;20577;-64
2024/01/30 13:26:08;;;;;;;19.23;11.53;;;;;;;;;;5088899;28;20293;-65
2024/01/30 13:28:36;;;;;;;15.07;11.37;;;;;;;;;;5090199;28;20236;-64
2024/01/30 13:31:03;;;;;;;15.30;11.73;;;;;;;;;;5089307;28;20202;-65
2024/01/30 13:33:30;;;;;;;15.30;11.10;;;;;;;;;;5090102;28;20210;-65
2024/01/30 13:35:58;;;;;;;18.43;11.93;;;;;;;;;;5089445;28;20518;-64
2024/01/30 13:38:26;;;;;;;14.17;10.87;;;;;;;;;;5088438;28;20210;-65
2024/01/30 13:40:53;;;;;;;14.80;11.73;;;;;;;;;;5069164;28;20215;-65
2024/01/30 13:43:20;;;;;;;16.63;11.17;;;;;;;;;;5088887;28;20291;-65
2024/01/30 13:45:48;;;;;;;17.83;11.17;;;;;;;;;;5089195;28;20217;-65
2024/01/30 13:48:16;;;;;;;14.87;10.80;;;;;;;;;;5089248;28;20203;-65
2024/01/30 13:50:43;;;;;;;17.60;12.53;;;;;;;;;;5089244;28;20214;-64
2024/01/30 13:53:10;;;;;;;16.90;12.20;;;;;;;;;;5089201;28;20202;-65
2024/01/30 13:55:37;;;;;;;16.07;12.00;;;;;;;;;;5089235;28;20206;-65
2024/01/30 13:58:05;;;;;;;18.67;12.47;;;;;;;;;;5089161;28;20222;-65
2024/01/30 14:00:32;;;;;;;16.90;11.50;;;;;;;;;;5088688;28;20206;-64
2024/01/30 14:03:00;;;;;;;18.73;12.37;;;;;;;;;;5088429;28;20653;-64
2024/01/30 14:05:28;;;;;;;15.87;11.50;;;;;;;;;;5088316;28;20222;-64
2024/01/30 14:07:55;;;;;;;16.17;11.27;;;;;;;;;;5088538;28;20225;-64
2024/01/30 14:10:22;;;;;;;15.03;10.93;;;;;;;;;;5071410;28;20250;-64
2024/01/30 14:12:49;;;;;;;23.13;11.73;;;;;;;;;;5071387;28;20210;-65
2024/01/30 14:15:18;;;;;;;16.03;11.40;;;;;;;;;;5068222;28;20611;-65
2024/01/30 14:17:48;;;;;;;17.00;11.50;;;;;;;;;;5080030;28;20226;-64
2024/01/30 14:20:17;;;;;;;16.93;11.77;;;;;;;;;;5068406;28;20219;-64
2024/01/30 14:22:44;;;;;;;19.33;12.07;;;;;;;;;;5081239;28;20325;-64
2024/01/30 14:25:12;;;;;;;18.10;11.90;;;;;;;;;;5087121;28;20214;-64
2024/01/30 14:27:39;;;;;;;18.57;11.20;;;;;;;;;;5088112;28;20921;-64